Metar z połowy godziny Komunikat METAR ze strony awiacja.imgw.pl Metar G30 EPLB METAR EPLB 240430Z 17005KT 8000 FEW007 OVC032 M05/M06 Q1028 =